Terminal Aerodrome Forecast
Issued by NWS Lake Charles, LA

Home | Current Version | Previous Version | Text Only | Print | Product List | Glossary On
Versions: 1 2 3 4 5 6 7 8 9 10 11 12 13 14 15 16 17
000
FTUS44 KLCH 222324
TAFAEX
TAF
KAEX 222324Z 2300/2324 VRB03KT P6SM SKC
     FM230900 00000KT 4SM BR SCT003
      TEMPO 2309/2313 1SM BR BKN003
     FM231400 VRB03KT P6SM SKC
     FM231700 11006KT P6SM FEW050=

USA.gov is the U.S. government's official web portal to all federal, state and local government web resources and services.